Weather observations for the past three days for
Kearney, Kearney Municipal Airport
Imperial (Metric)
Date Time (cdt) Wind (mph) Vis. (mi.) Weather Sky Cond. Temperature (ºF) Relative Humidity Wind Chill (°F) Heat Index (°F) Pressure Precipitation (in)
Air Dwpt 6 hour altimeter (in) sea level (mb) 1 hr 3 hr 6 hr
Max. Min.
05 16:56 E 15 10.00 Fair CLR 91 73 56% 100 29.93 1011.2
05 15:56 E 16 10.00 Fair CLR 90 73 58% 98 29.96 1012.5
05 14:56 E 16 10.00 Fair CLR 89.1 72 57% 96 29.98 1013.1
05 12:56 E 12 10.00 Fair CLR 86 72 87.1 66 63% 92 30.01 1014.1
05 11:56 E 13 10.00 Fair CLR 86 71.1 61% 92 30.03 1014.5
05 10:56 SE 3 G 17 10.00 Fair CLR 82 71.1 69% 86 30 1013.6
05 09:56 SE 3 10.00 Fair CLR 79 69.1 72% 82 29.98 1013.1
05 08:56 SE 3 10.00 Fair CLR 73.9 68 82% 29.97 1012.8
05 07:56 NE 5 10.00 Fair CLR 68 66 93% 29.95 1012.2
05 05:56 S 7 10.00 Fair CLR 71.1 66 84% 29.91 1010.6
05 04:56 S 8 10.00 Fair CLR 71.1 66 84% 29.91 1010.5
05 03:56 SE 3 10.00 Fair CLR 68 66 93% 29.93 1011.3
05 02:56 SE 6 10.00 Fair CLR 70 66 87% 29.94 1011.8
05 01:56 S 7 10.00 Fair CLR 71.1 66.9 87% 29.94 1011.8
05 00:56 S 7 10.00 Fair CLR 73.9 66.9 88 73.9 79% 29.94 1011.7
04 23:56 SE 9 10.00 Fair CLR 77 66.9 71% 79 29.93 1011.4
04 22:56 S 12 10.00 Fair CLR 78.1 68 71% 80 29.93 1011.3
04 21:56 SE 8 10.00 Fair CLR 78.1 71.1 79% 80 29.92 1011.0
04 20:56 SE 6 10.00 Fair CLR 81 73.9 79% 86 29.9 1010.3
04 19:56 E 8 10.00 Fair CLR 84 75.9 77% 93 29.89 1010.2
04 18:56 E 9 10.00 Fair CLR 88 77 91.9 82 70% 100 29.9 1010.3
04 17:56 E 9 10.00 Fair CLR 90 75 62% 100 29.9 1010.3
04 16:56 E 8 10.00 Thunderstorm in Vicinity CLR 90 72 56% 97 29.9 1010.3
04 15:56 E 10 10.00 Fair CLR 90 71.1 54% 96 29.9 1010.2
04 14:56 E 10 10.00 Fair CLR 86 73.9 67% 94 29.91 1010.6
04 13:56 E 8 10.00 Fair CLR 84 73 70% 90 29.92 1011.1
04 12:56 Calm 10.00 Fair CLR 82 71.1 84 69.1 69% 86 29.95 1012.1
04 11:56 SE 6 10.00 Light Rain FEW070 81 70 69% 84 29.94 1011.8
04 10:56 S 8 10.00 Fair CLR 82 69.1 65% 85 29.93 1011.3
04 09:56 S 8 10.00 Fair CLR 82 69.1 65% 85 29.93 1011.2
04 08:56 S 7 10.00 Fair CLR 77 69.1 77% 79 29.93 1011.3
04 07:56 Calm 10.00 Fair CLR 70 66.9 90% 29.92 1011.1
04 06:56 Calm 10.00 Fair CLR 69.1 64.9 77 66.9 87% 29.9 1010.3
04 05:56 S 7 10.00 Fair CLR 69.1 66 90% 29.89 1009.8
04 04:56 S 5 10.00 Fair CLR 70 66 87% 29.89 1009.8
04 03:56 S 8 10.00 Fair CLR 72 66.9 84% 29.88 1009.3
04 02:56 S 8 10.00 Fair CLR 71.1 66 84% 29.88 1009.4
04 01:56 W 3 10.00 Fair CLR 75 68 79% 76 29.88 1009.2
04 00:56 SW 5 10.00 Fair CLR 71.1 68 90 71.1 90% 29.87 1009.2
03 23:56 Calm 10.00 Fair CLR 75.9 69.1 79% 77 29.85 1008.5
03 22:56 Calm 10.00 Fair CLR 77 69.1 77% 79 29.86 1008.7
03 21:56 N 5 10.00 Fair CLR 79 69.1 72% 82 29.85 1008.5
03 20:56 N 6 10.00 Fair CLR 79 71.1 77% 82 29.83 1008.0
03 19:56 N 7 10.00 Fair CLR 82 72 72% 87 29.81 1007.4
03 18:56 N 9 10.00 Fair CLR 90 70 96.1 88 52% 95 29.8 1006.7
03 17:56 SW 3 10.00 Fair CLR 96.1 63 34% 98 29.79 1006.2
03 16:56 SW 7 10.00 Fair CLR 95 64 36% 97 29.79 1006.3
03 15:56 S 13 G 17 10.00 Fair CLR 93.9 66 40% 97 29.8 1006.4
03 14:56 S 15 10.00 Fair CLR 93 66.9 42% 97 29.81 1006.8
03 13:56 S 12 10.00 Fair CLR 90 66 45% 93 29.83 1007.6
03 12:56 S 15 10.00 Fair CLR 88 66 89.1 72 48% 90 29.85 1008.1
03 11:56 S 14 10.00 Fair CLR 87.1 64.9 48% 89 29.85 1008.4
03 10:56 S 16 10.00 Fair CLR 84.9 64.9 51% 87 29.85 1008.2
03 09:56 S 12 10.00 Fair CLR 81 64.9 58% 83 29.84 1008.3
03 08:56 S 7 10.00 Fair CLR 77 63 62% 79 29.86 1008.9
03 07:56 S 8 10.00 Fair CLR 73 62.1 69% 29.86 1008.8
03 06:56 SW 7 10.00 Fair CLR 72 61 81 72 68% 29.85 1008.5
03 05:56 S 8 10.00 Fair CLR 72 62.1 71% 29.84 1008.1
03 04:56 S 10 10.00 Fair CLR 72 62.1 71% 29.84 1007.9
03 03:56 S 12 10.00 Fair CLR 73.9 62.1 67% 29.84 1008.0
03 02:56 S 16 10.00 Fair CLR 78.1 61 56% 80 29.83 1007.6
03 01:56 S 16 10.00 Fair CLR 79 61 54% 80 29.83 1007.6
03 00:56 S 15 10.00 Fair CLR 81 61 90 79 51% 82 29.83 1007.5
02 23:56 S 16 10.00 Fair CLR 80.1 61 52% 81 29.83 1007.7
02 22:56 SE 15 10.00 Fair CLR 80.1 62.1 54% 81 29.83 1007.6
02 21:56 SE 12 10.00 A Few Clouds FEW100 80.1 64 58% 82 29.82 1007.6
02 20:56 SE 9 10.00 Partly Cloudy SCT110 82 66 58% 84 29.81 1007.4
02 19:56 SE 7 10.00 Mostly Cloudy BKN100 88 69.1 54% 92 29.8 1007.0
02 18:56 E 7 10.00 A Few Clouds FEW100 90 73 96.1 89.1 58% 98 29.81 1007.2
02 17:56 E 12 10.00 Fair CLR 95 70 44% 101 29.82 1007.1
Date Time (cdt) Wind (mph) Vis. (mi.) Weather Sky Cond. Air Dwpt Max. Min. Relative Humidity Wind Chill (°F) Heat Index (°F) altimeter (in) sea level (mb) 1 hr 3 hr 6 hr
6 hour
Temperature (ºF) Pressure Precipitation (in)